sensor_id;sensor_type;location;lat;lon;timestamp;pressure;altitude;pressure_sealevel;temperature;humidity
85268;BME280;75677;52.380;4.876;2024-01-15T00:01:29;100344.56;;;17.83;31.94
85268;BME280;75677;52.380;4.876;2024-01-15T00:03:55;100340.56;;;17.84;32.01
85268;BME280;75677;52.380;4.876;2024-01-15T00:06:21;100348.53;;;17.86;32.05
85268;BME280;75677;52.380;4.876;2024-01-15T00:08:46;100345.75;;;17.86;31.80
85268;BME280;75677;52.380;4.876;2024-01-15T00:11:12;100348.22;;;17.80;31.86
85268;BME280;75677;52.380;4.876;2024-01-15T00:13:37;100345.44;;;17.80;31.96
85268;BME280;75677;52.380;4.876;2024-01-15T00:16:04;100347.38;;;17.83;31.57
85268;BME280;75677;52.380;4.876;2024-01-15T00:18:30;100332.63;;;17.83;32.02
85268;BME280;75677;52.380;4.876;2024-01-15T00:20:56;100327.09;;;17.79;31.64
85268;BME280;75677;52.380;4.876;2024-01-15T00:23:23;100328.25;;;17.82;31.87
85268;BME280;75677;52.380;4.876;2024-01-15T00:25:48;100324.66;;;17.81;31.94
85268;BME280;75677;52.380;4.876;2024-01-15T00:28:13;100324.25;;;17.83;31.77
85268;BME280;75677;52.380;4.876;2024-01-15T00:30:39;100323.19;;;17.73;31.87
85268;BME280;75677;52.380;4.876;2024-01-15T00:33:04;100322.78;;;17.75;32.12
85268;BME280;75677;52.380;4.876;2024-01-15T00:35:30;100325.56;;;17.75;32.06
85268;BME280;75677;52.380;4.876;2024-01-15T00:37:55;100326.78;;;17.74;32.17
85268;BME280;75677;52.380;4.876;2024-01-15T00:40:21;100334.31;;;17.77;32.08
85268;BME280;75677;52.380;4.876;2024-01-15T00:42:46;100321.50;;;17.79;31.89
85268;BME280;75677;52.380;4.876;2024-01-15T00:45:12;100321.50;;;17.79;31.89
85268;BME280;75677;52.380;4.876;2024-01-15T00:47:37;100308.28;;;17.80;32.04
85268;BME280;75677;52.380;4.876;2024-01-15T00:50:03;100302.00;;;17.76;31.82
85268;BME280;75677;52.380;4.876;2024-01-15T00:52:28;100295.97;;;17.77;32.02
85268;BME280;75677;52.380;4.876;2024-01-15T00:54:55;100291.97;;;17.78;32.01
85268;BME280;75677;52.380;4.876;2024-01-15T00:57:21;100300.34;;;17.78;31.65
85268;BME280;75677;52.380;4.876;2024-01-15T00:59:47;100288.81;;;17.76;31.76
85268;BME280;75677;52.380;4.876;2024-01-15T01:02:12;100282.97;;;17.67;31.96
85268;BME280;75677;52.380;4.876;2024-01-15T01:04:38;100282.19;;;17.67;32.03
85268;BME280;75677;52.380;4.876;2024-01-15T01:07:03;100285.84;;;17.64;32.01
85268;BME280;75677;52.380;4.876;2024-01-15T01:09:29;100282.69;;;17.62;31.92
85268;BME280;75677;52.380;4.876;2024-01-15T01:11:55;100273.19;;;17.59;32.01
85268;BME280;75677;52.380;4.876;2024-01-15T01:14:21;100279.63;;;17.56;32.13
85268;BME280;75677;52.380;4.876;2024-01-15T01:16:46;100263.69;;;17.53;32.04
85268;BME280;75677;52.380;4.876;2024-01-15T01:19:12;100270.91;;;17.50;31.97
85268;BME280;75677;52.380;4.876;2024-01-15T01:21:37;100281.63;;;17.55;32.10
85268;BME280;75677;52.380;4.876;2024-01-15T01:24:03;100287.59;;;17.54;32.26
85268;BME280;75677;52.380;4.876;2024-01-15T01:26:28;100276.84;;;17.56;32.41
85268;BME280;75677;52.380;4.876;2024-01-15T01:28:54;100288.47;;;17.51;32.29
85268;BME280;75677;52.380;4.876;2024-01-15T01:31:19;100308.03;;;17.51;32.54
85268;BME280;75677;52.380;4.876;2024-01-15T01:33:45;100301.53;;;17.58;32.53
85268;BME280;75677;52.380;4.876;2024-01-15T01:36:10;100297.88;;;17.61;32.52
85268;BME280;75677;52.380;4.876;2024-01-15T01:38:36;100301.91;;;17.60;32.49
85268;BME280;75677;52.380;4.876;2024-01-15T01:41:02;100295.59;;;17.55;32.66
85268;BME280;75677;52.380;4.876;2024-01-15T01:43:27;100283.56;;;17.59;32.59
85268;BME280;75677;52.380;4.876;2024-01-15T01:45:56;100284.81;;;17.54;32.86
85268;BME280;75677;52.380;4.876;2024-01-15T01:48:24;100283.19;;;17.56;32.70
85268;BME280;75677;52.380;4.876;2024-01-15T01:50:51;100288.34;;;17.58;32.81
85268;BME280;75677;52.380;4.876;2024-01-15T01:53:17;100278.38;;;17.57;32.80
85268;BME280;75677;52.380;4.876;2024-01-15T01:55:43;100277.97;;;17.59;32.83
85268;BME280;75677;52.380;4.876;2024-01-15T01:58:08;100274.31;;;17.62;32.76
85268;BME280;75677;52.380;4.876;2024-01-15T02:00:35;100265.94;;;17.62;32.32
85268;BME280;75677;52.380;4.876;2024-01-15T02:03:01;100268.44;;;17.56;32.75
85268;BME280;75677;52.380;4.876;2024-01-15T02:05:28;100271.59;;;17.58;32.67
85268;BME280;75677;52.380;4.876;2024-01-15T02:07:56;100266.41;;;17.56;32.47
85268;BME280;75677;52.380;4.876;2024-01-15T02:10:21;100266.09;;;17.51;32.49
85268;BME280;75677;52.380;4.876;2024-01-15T02:12:47;100267.75;;;17.48;32.64
85268;BME280;75677;52.380;4.876;2024-01-15T02:15:14;100271.47;;;17.42;32.83
85268;BME280;75677;52.380;4.876;2024-01-15T02:18:03;100259.50;;;17.41;32.71
85268;BME280;75677;52.380;4.876;2024-01-15T02:20:29;100273.13;;;17.39;32.72
85268;BME280;75677;52.380;4.876;2024-01-15T02:23:15;100268.69;;;17.42;32.69
85268;BME280;75677;52.380;4.876;2024-01-15T02:25:45;100271.03;;;17.43;32.48
85268;BME280;75677;52.380;4.876;2024-01-15T02:28:13;100269.88;;;17.41;32.77
85268;BME280;75677;52.380;4.876;2024-01-15T02:30:40;100262.34;;;17.38;32.77
85268;BME280;75677;52.380;4.876;2024-01-15T02:33:07;100264.81;;;17.36;32.72
85268;BME280;75677;52.380;4.876;2024-01-15T02:35:33;100267.16;;;17.37;32.90
85268;BME280;75677;52.380;4.876;2024-01-15T02:37:59;100258.44;;;17.35;32.94
85268;BME280;75677;52.380;4.876;2024-01-15T02:40:25;100254.84;;;17.35;32.98
85268;BME280;75677;52.380;4.876;2024-01-15T02:42:51;100258.06;;;17.33;32.84
85268;BME280;75677;52.380;4.876;2024-01-15T02:45:18;100259.28;;;17.32;32.90
85268;BME280;75677;52.380;4.876;2024-01-15T02:47:43;100255.69;;;17.32;32.97
85268;BME280;75677;52.380;4.876;2024-01-15T02:50:10;100264.06;;;17.32;33.04
85268;BME280;75677;52.380;4.876;2024-01-15T02:52:35;100270.47;;;17.32;33.05
85268;BME280;75677;52.380;4.876;2024-01-15T02:55:01;100276.84;;;17.33;32.72
85268;BME280;75677;52.380;4.876;2024-01-15T02:57:26;100273.66;;;17.31;33.04
85268;BME280;75677;52.380;4.876;2024-01-15T02:59:51;100278.41;;;17.34;33.15
85268;BME280;75677;52.380;4.876;2024-01-15T03:02:17;100268.00;;;17.34;33.19
85268;BME280;75677;52.380;4.876;2024-01-15T03:04:43;100273.59;;;17.34;33.21
85268;BME280;75677;52.380;4.876;2024-01-15T03:07:09;100265.22;;;17.34;33.16
85268;BME280;75677;52.380;4.876;2024-01-15T03:09:34;100261.69;;;17.30;33.09
85268;BME280;75677;52.380;4.876;2024-01-15T03:12:00;100254.97;;;17.28;33.10
85268;BME280;75677;52.380;4.876;2024-01-15T03:14:25;100250.59;;;17.27;33.29
85268;BME280;75677;52.380;4.876;2024-01-15T03:16:52;100262.13;;;17.29;33.18
85268;BME280;75677;52.380;4.876;2024-01-15T03:19:17;100255.75;;;17.28;33.06
85268;BME280;75677;52.380;4.876;2024-01-15T03:21:44;100239.78;;;17.29;33.21
85268;BME280;75677;52.380;4.876;2024-01-15T03:24:10;100246.16;;;17.29;33.30
85268;BME280;75677;52.380;4.876;2024-01-15T03:26:35;100244.16;;;17.30;33.00
85268;BME280;75677;52.380;4.876;2024-01-15T03:29:01;100233.06;;;17.26;32.94
85268;BME280;75677;52.380;4.876;2024-01-15T03:31:26;100234.63;;;17.27;32.79
85268;BME280;75677;52.380;4.876;2024-01-15T03:33:52;100237.06;;;17.25;32.91
85268;BME280;75677;52.380;4.876;2024-01-15T03:36:18;100235.06;;;17.26;33.00
85268;BME280;75677;52.380;4.876;2024-01-15T03:38:43;100229.09;;;17.24;32.96
85268;BME280;75677;52.380;4.876;2024-01-15T03:41:09;100232.75;;;17.21;32.78
85268;BME280;75677;52.380;4.876;2024-01-15T03:43:35;100227.94;;;17.21;32.89
85268;BME280;75677;52.380;4.876;2024-01-15T03:46:00;100226.75;;;17.22;32.77
85268;BME280;75677;52.380;4.876;2024-01-15T03:48:27;100221.56;;;17.21;32.86
85268;BME280;75677;52.380;4.876;2024-01-15T03:50:53;100219.56;;;17.21;32.65
85268;BME280;75677;52.380;4.876;2024-01-15T03:53:19;100225.16;;;17.21;32.87
85268;BME280;75677;52.380;4.876;2024-01-15T03:55:45;100211.63;;;17.20;32.67
85268;BME280;75677;52.380;4.876;2024-01-15T03:58:11;100209.59;;;17.20;32.54
85268;BME280;75677;52.380;4.876;2024-01-15T04:00:37;100210.03;;;17.19;32.53
85268;BME280;75677;52.380;4.876;2024-01-15T04:03:02;100215.69;;;17.15;32.81
85268;BME280;75677;52.380;4.876;2024-01-15T04:05:28;100223.66;;;17.17;32.78
85268;BME280;75677;52.380;4.876;2024-01-15T04:07:53;100220.44;;;17.18;32.90
85268;BME280;75677;52.380;4.876;2024-01-15T04:10:19;100220.38;;;17.22;33.12
85268;BME280;75677;52.380;4.876;2024-01-15T04:12:44;100227.53;;;17.23;33.11
85268;BME280;75677;52.380;4.876;2024-01-15T04:15:12;100219.94;;;17.23;33.08
85268;BME280;75677;52.380;4.876;2024-01-15T04:17:38;100215.56;;;17.22;32.88
85268;BME280;75677;52.380;4.876;2024-01-15T04:20:03;100216.78;;;17.21;33.05
85268;BME280;75677;52.380;4.876;2024-01-15T04:22:29;100207.91;;;17.26;32.96
85268;BME280;75677;52.380;4.876;2024-01-15T04:24:54;100193.22;;;17.22;32.94
85268;BME280;75677;52.380;4.876;2024-01-15T04:27:20;100186.91;;;17.18;32.89
85268;BME280;75677;52.380;4.876;2024-01-15T04:29:45;100192.16;;;17.16;32.91
85268;BME280;75677;52.380;4.876;2024-01-15T04:32:11;100191.34;;;17.16;33.07
85268;BME280;75677;52.380;4.876;2024-01-15T04:34:36;100187.78;;;17.15;33.02
85268;BME280;75677;52.380;4.876;2024-01-15T04:37:02;100187.78;;;17.15;33.08
85268;BME280;75677;52.380;4.876;2024-01-15T04:39:27;100183.78;;;17.16;32.70
85268;BME280;75677;52.380;4.876;2024-01-15T04:41:53;100192.94;;;17.17;33.03
85268;BME280;75677;52.380;4.876;2024-01-15T04:44:19;100192.50;;;17.18;33.13
85268;BME280;75677;52.380;4.876;2024-01-15T04:46:44;100203.25;;;17.20;32.87
85268;BME280;75677;52.380;4.876;2024-01-15T04:49:11;100190.84;;;17.21;33.07
85268;BME280;75677;52.380;4.876;2024-01-15T04:51:36;100192.09;;;17.20;33.09
85268;BME280;75677;52.380;4.876;2024-01-15T04:54:02;100196.09;;;17.19;33.09
85268;BME280;75677;52.380;4.876;2024-01-15T04:56:29;100192.50;;;17.18;33.07
85268;BME280;75677;52.380;4.876;2024-01-15T04:58:55;100169.34;;;17.18;33.08
85268;BME280;75677;52.380;4.876;2024-01-15T05:01:20;100170.22;;;17.15;32.94
85268;BME280;75677;52.380;4.876;2024-01-15T05:03:46;100163.84;;;17.14;32.90
85268;BME280;75677;52.380;4.876;2024-01-15T05:06:11;100161.84;;;17.15;32.98
85268;BME280;75677;52.380;4.876;2024-01-15T05:08:37;100173.44;;;17.13;32.93
85268;BME280;75677;52.380;4.876;2024-01-15T05:11:02;100158.75;;;17.09;32.85
85268;BME280;75677;52.380;4.876;2024-01-15T05:13:28;100160.75;;;17.09;32.88
85268;BME280;75677;52.380;4.876;2024-01-15T05:15:53;100177.16;;;17.07;33.10
85268;BME280;75677;52.380;4.876;2024-01-15T05:18:18;100204.59;;;17.12;33.37
85268;BME280;75677;52.380;4.876;2024-01-15T05:20:44;100199.28;;;17.17;33.24
85268;BME280;75677;52.380;4.876;2024-01-15T05:23:10;100200.94;;;17.15;33.22
85268;BME280;75677;52.380;4.876;2024-01-15T05:25:35;100193.34;;;17.15;33.00
85268;BME280;75677;52.380;4.876;2024-01-15T05:28:01;100188.63;;;17.12;33.03
85268;BME280;75677;52.380;4.876;2024-01-15T05:30:26;100186.69;;;17.09;33.12
85268;BME280;75677;52.380;4.876;2024-01-15T05:32:52;100173.13;;;17.08;33.33
85268;BME280;75677;52.380;4.876;2024-01-15T05:35:17;100170.78;;;17.06;33.27
85268;BME280;75677;52.380;4.876;2024-01-15T05:37:44;100170.78;;;17.06;33.22
85268;BME280;75677;52.380;4.876;2024-01-15T05:40:12;100170.72;;;17.10;33.21
85268;BME280;75677;52.380;4.876;2024-01-15T05:42:39;100161.44;;;17.16;33.01
85268;BME280;75677;52.380;4.876;2024-01-15T05:45:05;100159.72;;;17.22;33.07
85268;BME280;75677;52.380;4.876;2024-01-15T05:47:31;100170.28;;;17.31;33.13
85268;BME280;75677;52.380;4.876;2024-01-15T05:49:57;100165.03;;;17.36;33.19
85268;BME280;75677;52.380;4.876;2024-01-15T05:52:23;100161.72;;;17.41;33.23
85268;BME280;75677;52.380;4.876;2024-01-15T05:54:49;100164.00;;;17.46;33.10
85268;BME280;75677;52.380;4.876;2024-01-15T05:57:15;100156.78;;;17.49;33.06
85268;BME280;75677;52.380;4.876;2024-01-15T05:59:40;100155.91;;;17.52;33.07
85268;BME280;75677;52.380;4.876;2024-01-15T06:02:06;100159.03;;;17.54;33.37
85268;BME280;75677;52.380;4.876;2024-01-15T06:04:31;100159.00;;;17.58;33.27
85268;BME280;75677;52.380;4.876;2024-01-15T06:06:58;100149.41;;;17.59;33.10
85268;BME280;75677;52.380;4.876;2024-01-15T06:09:23;100153.00;;;17.59;33.16
85268;BME280;75677;52.380;4.876;2024-01-15T06:11:49;100144.72;;;17.52;32.85
85268;BME280;75677;52.380;4.876;2024-01-15T06:14:14;100145.28;;;17.43;32.69
85268;BME280;75677;52.380;4.876;2024-01-15T06:16:40;100159.78;;;17.38;32.86
85268;BME280;75677;52.380;4.876;2024-01-15T06:19:05;100144.53;;;17.43;33.79
85268;BME280;75677;52.380;4.876;2024-01-15T06:21:31;100158.44;;;17.46;33.67
85268;BME280;75677;52.380;4.876;2024-01-15T06:23:56;100168.22;;;17.35;33.28
85268;BME280;75677;52.380;4.876;2024-01-15T06:26:22;100193.28;;;17.19;32.96
85268;BME280;75677;52.380;4.876;2024-01-15T06:28:48;100243.06;;;17.00;32.98
85268;BME280;75677;52.380;4.876;2024-01-15T06:31:13;100201.59;;;16.79;33.03
85268;BME280;75677;52.380;4.876;2024-01-15T06:33:42;100191.50;;;16.62;33.27
85268;BME280;75677;52.380;4.876;2024-01-15T06:36:08;100172.31;;;16.64;33.03
85268;BME280;75677;52.380;4.876;2024-01-15T06:38:33;100175.78;;;16.72;33.33
85268;BME280;75677;52.380;4.876;2024-01-15T06:40:59;100180.16;;;16.73;33.31
85268;BME280;75677;52.380;4.876;2024-01-15T06:43:25;100166.28;;;16.69;33.25
85268;BME280;75677;52.380;4.876;2024-01-15T06:45:51;100158.25;;;16.71;33.10
85268;BME280;75677;52.380;4.876;2024-01-15T06:48:17;100152.66;;;16.71;33.17
85268;BME280;75677;52.380;4.876;2024-01-15T06:50:43;100150.00;;;16.64;33.21
85268;BME280;75677;52.380;4.876;2024-01-15T06:53:08;100155.97;;;16.66;32.99
85268;BME280;75677;52.380;4.876;2024-01-15T06:55:34;100152.38;;;16.66;32.95
85268;BME280;75677;52.380;4.876;2024-01-15T06:57:59;100158.75;;;16.66;32.88
85268;BME280;75677;52.380;4.876;2024-01-15T07:00:25;100155.63;;;16.61;33.07
85268;BME280;75677;52.380;4.876;2024-01-15T07:02:52;100156.06;;;16.59;32.73
85268;BME280;75677;52.380;4.876;2024-01-15T07:05:18;100170.03;;;16.59;32.86
85268;BME280;75677;52.380;4.876;2024-01-15T07:07:43;100177.69;;;16.51;32.86
85268;BME280;75677;52.380;4.876;2024-01-15T07:10:09;100172.66;;;16.43;33.11
85268;BME280;75677;52.380;4.876;2024-01-15T07:12:35;100177.84;;;16.41;32.99
85268;BME280;75677;52.380;4.876;2024-01-15T07:15:01;100160.13;;;16.28;32.99
85268;BME280;75677;52.380;4.876;2024-01-15T07:17:27;100146.66;;;16.49;32.79
85268;BME280;75677;52.380;4.876;2024-01-15T07:19:53;100143.28;;;16.62;32.58
85268;BME280;75677;52.380;4.876;2024-01-15T07:22:19;100135.91;;;16.71;32.39
85268;BME280;75677;52.380;4.876;2024-01-15T07:24:44;100134.22;;;16.77;32.37
85268;BME280;75677;52.380;4.876;2024-01-15T07:27:10;100137.38;;;16.79;32.21
85268;BME280;75677;52.380;4.876;2024-01-15T07:29:36;100141.75;;;16.80;32.36
85268;BME280;75677;52.380;4.876;2024-01-15T07:32:02;100140.53;;;16.81;32.34
85268;BME280;75677;52.380;4.876;2024-01-15T07:34:28;100136.19;;;16.80;32.16
85268;BME280;75677;52.380;4.876;2024-01-15T07:36:53;100124.63;;;16.78;32.36
85268;BME280;75677;52.380;4.876;2024-01-15T07:39:19;100130.59;;;16.80;32.10
85268;BME280;75677;52.380;4.876;2024-01-15T07:41:45;100136.94;;;16.81;32.08
85268;BME280;75677;52.380;4.876;2024-01-15T07:44:11;100144.56;;;16.80;32.27
85268;BME280;75677;52.380;4.876;2024-01-15T07:46:38;100166.88;;;16.80;32.37
85268;BME280;75677;52.380;4.876;2024-01-15T07:49:05;100185.56;;;16.83;32.23
85268;BME280;75677;52.380;4.876;2024-01-15T07:51:30;100191.84;;;16.87;32.28
85268;BME280;75677;52.380;4.876;2024-01-15T07:53:56;100189.38;;;16.93;32.25
85268;BME280;75677;52.380;4.876;2024-01-15T07:56:22;100180.22;;;16.92;32.25
85268;BME280;75677;52.380;4.876;2024-01-15T07:58:47;100172.19;;;16.94;32.34
85268;BME280;75677;52.380;4.876;2024-01-15T08:01:13;100170.13;;;16.98;32.32
85268;BME280;75677;52.380;4.876;2024-01-15T08:03:38;100170.53;;;16.97;32.11
85268;BME280;75677;52.380;4.876;2024-01-15T08:06:05;100166.53;;;16.98;32.11
85268;BME280;75677;52.380;4.876;2024-01-15T08:08:32;100166.19;;;16.96;32.09
85268;BME280;75677;52.380;4.876;2024-01-15T08:10:57;100162.16;;;16.97;32.20
85268;BME280;75677;52.380;4.876;2024-01-15T08:13:22;100166.97;;;16.96;32.14
85268;BME280;75677;52.380;4.876;2024-01-15T08:15:48;100159.81;;;16.95;32.18
85268;BME280;75677;52.380;4.876;2024-01-15T08:18:13;100158.66;;;16.93;32.02
85268;BME280;75677;52.380;4.876;2024-01-15T08:20:39;100155.88;;;16.93;32.31
85268;BME280;75677;52.380;4.876;2024-01-15T08:23:05;100164.19;;;16.96;32.74
85268;BME280;75677;52.380;4.876;2024-01-15T08:25:30;100163.28;;;17.03;33.03
85268;BME280;75677;52.380;4.876;2024-01-15T08:27:56;100165.16;;;16.86;32.36
85268;BME280;75677;52.380;4.876;2024-01-15T08:30:23;100163.53;;;16.89;32.74
85268;BME280;75677;52.380;4.876;2024-01-15T08:32:53;100155.09;;;16.92;33.40
85268;BME280;75677;52.380;4.876;2024-01-15T08:35:19;100160.22;;;16.94;33.47
85268;BME280;75677;52.380;4.876;2024-01-15T08:37:49;100149.00;;;16.97;34.20
85268;BME280;75677;52.380;4.876;2024-01-15T08:40:15;100151.31;;;17.02;34.21
85268;BME280;75677;52.380;4.876;2024-01-15T08:42:41;100143.28;;;17.04;34.23
85268;BME280;75677;52.380;4.876;2024-01-15T08:45:06;100142.88;;;17.06;34.37
85268;BME280;75677;52.380;4.876;2024-01-15T08:47:32;100143.28;;;17.04;35.03
85268;BME280;75677;52.380;4.876;2024-01-15T08:49:57;100146.38;;;17.10;34.97
85268;BME280;75677;52.380;4.876;2024-01-15T08:52:24;100146.28;;;17.14;34.86
85268;BME280;75677;52.380;4.876;2024-01-15T08:54:49;100151.03;;;17.17;33.74
85268;BME280;75677;52.380;4.876;2024-01-15T08:57:14;100141.50;;;17.14;33.11
85268;BME280;75677;52.380;4.876;2024-01-15T08:59:40;100146.28;;;17.14;34.16
85268;BME280;75677;52.380;4.876;2024-01-15T09:02:06;100148.19;;;17.40;34.33
85268;BME280;75677;52.380;4.876;2024-01-15T09:04:33;100163.28;;;17.42;34.50
85268;BME280;75677;52.380;4.876;2024-01-15T09:06:58;100160.75;;;17.09;35.68
85268;BME280;75677;52.380;4.876;2024-01-15T09:09:24;100162.47;;;17.02;35.67
85268;BME280;75677;52.380;4.876;2024-01-15T09:11:50;100158.59;;;16.96;36.46
85268;BME280;75677;52.380;4.876;2024-01-15T09:14:16;100163.47;;;16.92;36.46
85268;BME280;75677;52.380;4.876;2024-01-15T09:16:41;100149.84;;;16.94;36.36
85268;BME280;75677;52.380;4.876;2024-01-15T09:19:07;100161.75;;;16.98;36.42
85268;BME280;75677;52.380;4.876;2024-01-15T09:21:33;100158.16;;;16.98;36.53
85268;BME280;75677;52.380;4.876;2024-01-15T09:23:58;100168.47;;;17.01;36.58
85268;BME280;75677;52.380;4.876;2024-01-15T09:26:24;100165.63;;;17.04;36.73
85268;BME280;75677;52.380;4.876;2024-01-15T09:28:49;100162.81;;;17.04;36.52
85268;BME280;75677;52.380;4.876;2024-01-15T09:31:15;100163.22;;;17.07;36.93
85268;BME280;75677;52.380;4.876;2024-01-15T09:33:43;100159.25;;;17.04;36.65
85268;BME280;75677;52.380;4.876;2024-01-15T09:36:09;100154.19;;;17.19;36.68
85268;BME280;75677;52.380;4.876;2024-01-15T09:38:34;100156.13;;;17.61;35.55
85268;BME280;75677;52.380;4.876;2024-01-15T09:41:00;100155.97;;;17.48;36.29
85268;BME280;75677;52.380;4.876;2024-01-15T09:43:25;100161.91;;;17.31;36.18
85268;BME280;75677;52.380;4.876;2024-01-15T09:45:53;100169.16;;;17.28;36.45
85268;BME280;75677;52.380;4.876;2024-01-15T09:48:18;100164.16;;;17.20;36.60
85268;BME280;75677;52.380;4.876;2024-01-15T09:50:44;100161.44;;;17.16;36.96
85268;BME280;75677;52.380;4.876;2024-01-15T09:53:09;100163.03;;;17.14;37.17
85268;BME280;75677;52.380;4.876;2024-01-15T09:55:38;100160.25;;;17.14;36.80
85268;BME280;75677;52.380;4.876;2024-01-15T09:58:03;100164.28;;;17.13;36.86
85268;BME280;75677;52.380;4.876;2024-01-15T10:00:29;100171.44;;;17.14;36.84
85268;BME280;75677;52.380;4.876;2024-01-15T10:02:58;100180.41;;;17.25;36.80
85268;BME280;75677;52.380;4.876;2024-01-15T10:05:26;100174.19;;;17.56;35.91
85268;BME280;75677;52.380;4.876;2024-01-15T10:07:53;100188.72;;;17.48;36.31
85268;BME280;75677;52.380;4.876;2024-01-15T10:10:20;100193.38;;;17.35;36.51
85268;BME280;75677;52.380;4.876;2024-01-15T10:12:47;100201.47;;;17.29;36.32
85268;BME280;75677;52.380;4.876;2024-01-15T10:15:13;100202.00;;;17.21;36.37
85268;BME280;75677;52.380;4.876;2024-01-15T10:17:39;100196.31;;;17.28;36.44
85268;BME280;75677;52.380;4.876;2024-01-15T10:20:12;100209.00;;;17.32;36.54
85268;BME280;75677;52.380;4.876;2024-01-15T10:22:45;100201.28;;;17.40;36.47
85268;BME280;75677;52.380;4.876;2024-01-15T10:25:12;100211.91;;;17.68;36.29
85268;BME280;75677;52.380;4.876;2024-01-15T10:27:39;100208.84;;;17.98;36.26
85268;BME280;75677;52.380;4.876;2024-01-15T10:30:05;100219.66;;;17.96;35.92
85268;BME280;75677;52.380;4.876;2024-01-15T10:32:31;100224.00;;;17.81;36.19
85268;BME280;75677;52.380;4.876;2024-01-15T10:34:57;100220.69;;;17.67;35.92
85268;BME280;75677;52.380;4.876;2024-01-15T10:37:24;100224.72;;;17.85;36.92
85268;BME280;75677;52.380;4.876;2024-01-15T10:39:50;100220.31;;;18.04;35.55
85268;BME280;75677;52.380;4.876;2024-01-15T10:42:16;100220.50;;;18.13;35.33
85268;BME280;75677;52.380;4.876;2024-01-15T10:44:44;100215.19;;;18.19;35.13
85268;BME280;75677;52.380;4.876;2024-01-15T10:47:12;100215.69;;;18.14;35.28
85268;BME280;75677;52.380;4.876;2024-01-15T10:49:39;100221.38;;;18.10;35.08
85268;BME280;75677;52.380;4.876;2024-01-15T10:52:05;100215.44;;;18.08;35.36
85268;BME280;75677;52.380;4.876;2024-01-15T10:54:31;100212.38;;;18.02;35.35
85268;BME280;75677;52.380;4.876;2024-01-15T10:56:57;100224.78;;;18.01;35.39
85268;BME280;75677;52.380;4.876;2024-01-15T10:59:23;100232.38;;;18.01;35.42
85268;BME280;75677;52.380;4.876;2024-01-15T11:01:50;100235.00;;;18.08;35.32
85268;BME280;75677;52.380;4.876;2024-01-15T11:04:18;100224.25;;;18.06;35.23
85268;BME280;75677;52.380;4.876;2024-01-15T11:06:45;100231.41;;;18.07;35.07
85268;BME280;75677;52.380;4.876;2024-01-15T11:09:12;100215.44;;;18.08;35.13
85268;BME280;75677;52.380;4.876;2024-01-15T11:11:41;100220.50;;;18.13;34.96
85268;BME280;75677;52.380;4.876;2024-01-15T11:14:07;100225.13;;;18.03;35.08
85268;BME280;75677;52.380;4.876;2024-01-15T11:16:57;100227.38;;;17.92;35.11
85268;BME280;75677;52.380;4.876;2024-01-15T11:19:24;100232.97;;;17.92;35.12
85268;BME280;75677;52.380;4.876;2024-01-15T11:21:50;100231.31;;;17.95;35.34
85268;BME280;75677;52.380;4.876;2024-01-15T11:24:35;100232.63;;;18.06;35.00
85268;BME280;75677;52.380;4.876;2024-01-15T11:27:01;100224.72;;;18.21;34.42
85268;BME280;75677;52.380;4.876;2024-01-15T11:29:31;100230.88;;;18.32;34.36
85268;BME280;75677;52.380;4.876;2024-01-15T11:32:03;100223.47;;;18.42;34.05
85268;BME280;75677;52.380;4.876;2024-01-15T11:35:09;100222.50;;;18.48;33.88
85268;BME280;75677;52.380;4.876;2024-01-15T11:43:02;100223.91;;;18.56;33.56
85268;BME280;75677;52.380;4.876;2024-01-15T11:45:30;100223.50;;;18.58;33.21
85268;BME280;75677;52.380;4.876;2024-01-15T11:48:09;100231.53;;;18.56;34.05
85268;BME280;75677;52.380;4.876;2024-01-15T11:50:46;100245.97;;;18.71;33.73
85268;BME280;75677;52.380;4.876;2024-01-15T11:53:45;100244.50;;;18.82;33.35
85268;BME280;75677;52.380;4.876;2024-01-15T11:56:16;100239.09;;;18.75;33.67
85268;BME280;75677;52.380;4.876;2024-01-15T11:58:42;100244.59;;;18.79;33.31
85268;BME280;75677;52.380;4.876;2024-01-15T12:01:09;100237.91;;;18.73;33.15
85268;BME280;75677;52.380;4.876;2024-01-15T12:03:37;100257.81;;;18.62;33.07
85268;BME280;75677;52.380;4.876;2024-01-15T12:06:06;100265.66;;;18.51;33.42
85268;BME280;75677;52.380;4.876;2024-01-15T12:08:32;100271.75;;;18.46;33.52
85268;BME280;75677;52.380;4.876;2024-01-15T12:10:57;100280.31;;;18.39;33.53
85268;BME280;75677;52.380;4.876;2024-01-15T12:13:22;100285.91;;;18.39;33.53
85268;BME280;75677;52.380;4.876;2024-01-15T12:15:49;100273.63;;;18.33;33.31
85268;BME280;75677;52.380;4.876;2024-01-15T12:18:16;100269.34;;;18.28;33.59
85268;BME280;75677;52.380;4.876;2024-01-15T12:20:44;100277.19;;;18.33;33.33
85268;BME280;75677;52.380;4.876;2024-01-15T12:23:12;100281.94;;;18.36;32.92
85268;BME280;75677;52.380;4.876;2024-01-15T12:25:39;100274.06;;;18.31;33.20
85268;BME280;75677;52.380;4.876;2024-01-15T12:28:06;100276.16;;;18.27;33.21
85268;BME280;75677;52.380;4.876;2024-01-15T12:30:33;100277.09;;;18.21;33.06
85268;BME280;75677;52.380;4.876;2024-01-15T12:33:03;100291.22;;;18.14;33.33
85268;BME280;75677;52.380;4.876;2024-01-15T12:35:29;100292.09;;;18.11;33.54
85268;BME280;75677;52.380;4.876;2024-01-15T12:37:55;100286.44;;;18.14;33.45
85268;BME280;75677;52.380;4.876;2024-01-15T12:40:22;100290.28;;;18.20;33.59
85268;BME280;75677;52.380;4.876;2024-01-15T12:42:48;100288.66;;;18.23;33.26
85268;BME280;75677;52.380;4.876;2024-01-15T12:45:13;100292.50;;;18.29;33.37
85268;BME280;75677;52.380;4.876;2024-01-15T12:47:42;100290.50;;;18.29;33.38
85268;BME280;75677;52.380;4.876;2024-01-15T12:50:12;100279.22;;;18.33;33.15
85268;BME280;75677;52.380;4.876;2024-01-15T12:52:40;100281.16;;;18.36;33.07